createdAt,value
2022-09-16T00:01:14.556Z,13.22
2022-09-16T00:06:21.675Z,13.22
2022-09-16T00:11:28.848Z,12.62
2022-09-16T00:16:36.191Z,12.31
2022-09-16T00:21:43.270Z,12.31
2022-09-16T00:26:50.480Z,12.31
2022-09-16T00:31:57.647Z,12.31
2022-09-16T00:37:04.783Z,12.31
2022-09-16T00:42:11.987Z,12.31
2022-09-16T00:47:19.253Z,12.31
2022-09-16T00:52:26.411Z,12.31
2022-09-16T00:57:33.653Z,12.31
2022-09-16T01:02:40.930Z,12.31
2022-09-16T01:07:48.131Z,12.31
2022-09-16T01:12:55.355Z,12.31
2022-09-16T01:18:02.548Z,12.31
2022-09-16T01:23:09.725Z,12.31
2022-09-16T01:28:16.968Z,12.31
2022-09-16T01:33:24.155Z,12.31
2022-09-16T01:38:31.305Z,12.31
2022-09-16T01:43:38.463Z,12.31
2022-09-16T01:48:46.496Z,12.31
2022-09-16T01:53:52.940Z,12.31
2022-09-16T01:59:00.068Z,12.31
2022-09-16T02:04:07.222Z,12.31
2022-09-16T02:09:14.358Z,12.31
2022-09-16T02:14:21.596Z,11.99
2022-09-16T02:19:28.837Z,12.31
2022-09-16T02:24:36.089Z,12.31
2022-09-16T02:29:43.291Z,12.31
2022-09-16T02:34:50.521Z,11.99
2022-09-16T02:39:57.847Z,11.99
2022-09-16T02:45:04.948Z,11.99
2022-09-16T02:50:12.538Z,11.99
2022-09-16T02:55:19.737Z,11.99
2022-09-16T03:00:26.999Z,11.99
2022-09-16T03:05:34.272Z,11.99
2022-09-16T03:10:41.562Z,11.99
2022-09-16T03:15:48.858Z,11.99
2022-09-16T03:20:56.073Z,11.99
2022-09-16T03:26:03.243Z,11.99
2022-09-16T03:31:10.582Z,11.99
2022-09-16T03:36:17.767Z,11.99
2022-09-16T03:41:24.976Z,11.99
2022-09-16T03:46:32.230Z,11.99
2022-09-16T03:51:39.464Z,11.99
2022-09-16T03:56:46.646Z,11.99
2022-09-16T04:01:53.871Z,11.99
2022-09-16T04:07:01.117Z,11.99
2022-09-16T04:12:08.294Z,11.99
2022-09-16T04:17:15.509Z,11.99
2022-09-16T04:22:22.735Z,11.99
2022-09-16T04:27:29.919Z,11.99
2022-09-16T04:32:37.079Z,11.99
2022-09-16T04:37:44.297Z,11.99
2022-09-16T04:42:51.534Z,11.99
2022-09-16T04:47:58.745Z,11.99
2022-09-16T04:53:05.950Z,11.99
2022-09-16T04:58:13.157Z,11.99
2022-09-16T05:03:20.443Z,11.99
2022-09-16T05:08:27.612Z,11.99
2022-09-16T05:13:34.860Z,11.99
2022-09-16T05:18:42.071Z,11.99
2022-09-16T05:23:49.639Z,11.99
2022-09-16T05:28:56.483Z,11.99
2022-09-16T05:34:03.668Z,11.99
2022-09-16T05:39:22.782Z,11.99
2022-09-16T05:44:18.143Z,11.99
2022-09-16T05:49:25.382Z,11.99
2022-09-16T05:54:32.851Z,11.99
2022-09-16T05:59:39.936Z,11.99
2022-09-16T06:04:47.141Z,11.99
2022-09-16T06:09:54.512Z,11.99
2022-09-16T06:15:01.634Z,11.99
2022-09-16T06:20:08.861Z,11.99
2022-09-16T06:25:16.233Z,11.99
2022-09-16T06:30:24.667Z,11.99
2022-09-16T06:35:30.569Z,11.99
2022-09-16T06:40:37.966Z,11.99
2022-09-16T06:45:45.188Z,11.99
2022-09-16T06:50:52.380Z,11.99
2022-09-16T06:55:59.710Z,11.99
2022-09-16T07:01:06.918Z,11.99
2022-09-16T07:06:14.254Z,11.99
2022-09-16T07:11:21.647Z,11.99
2022-09-16T07:16:28.798Z,11.99
2022-09-16T07:21:36.028Z,11.99
2022-09-16T07:26:43.355Z,11.99
2022-09-16T07:31:50.399Z,11.99
2022-09-16T07:36:57.618Z,11.99
2022-09-16T07:42:06.279Z,11.99
2022-09-16T07:47:12.051Z,11.99
2022-09-16T07:52:19.228Z,11.99
2022-09-16T07:57:26.552Z,11.99
2022-09-16T08:02:33.739Z,11.99
2022-09-16T08:07:40.896Z,11.99
2022-09-16T08:12:48.220Z,11.99
2022-09-16T08:17:55.355Z,11.99
2022-09-16T08:23:02.583Z,11.99
2022-09-16T08:28:09.894Z,11.99
2022-09-16T08:33:16.924Z,11.99
2022-09-16T08:38:24.104Z,11.99
2022-09-16T08:43:31.513Z,11.99
2022-09-16T08:48:38.590Z,11.99
2022-09-16T08:53:45.804Z,11.99
2022-09-16T08:58:53.140Z,11.99
2022-09-16T09:04:00.209Z,11.99
2022-09-16T09:09:07.471Z,11.99
2022-09-16T09:14:14.899Z,11.99
2022-09-16T09:19:22.040Z,11.99
2022-09-16T09:24:29.229Z,11.99
2022-09-16T09:29:36.590Z,11.99
2022-09-16T09:34:43.643Z,11.99
2022-09-16T09:39:50.932Z,11.66
2022-09-16T09:45:01.421Z,11.33
2022-09-16T09:50:05.254Z,11.66
2022-09-16T09:55:16.126Z,11.33
2022-09-16T10:00:19.906Z,11.33
2022-09-16T10:05:27.037Z,11.33
2022-09-16T10:10:34.296Z,11.33
2022-09-16T10:15:41.691Z,11.33
2022-09-16T10:20:48.813Z,11.66
2022-09-16T10:25:56.033Z,11.33
2022-09-16T10:31:03.567Z,10.99
2022-09-16T10:36:10.598Z,11.33
2022-09-16T10:41:17.865Z,11.66
2022-09-16T10:46:25.297Z,11.33
2022-09-16T10:51:32.307Z,11.33
2022-09-16T10:56:39.522Z,10.99
2022-09-16T11:01:48.147Z,10.99
2022-09-16T11:06:53.937Z,10.99
2022-09-16T11:12:01.163Z,11.33
2022-09-16T11:17:08.620Z,10.99
2022-09-16T11:22:15.696Z,10.99
2022-09-16T11:27:23.019Z,10.65
2022-09-16T11:32:30.429Z,10.29
2022-09-16T11:37:37.536Z,10.29
2022-09-16T11:42:45.810Z,10.29
2022-09-16T11:47:52.166Z,10.29
2022-09-16T11:53:04.446Z,10.29
2022-09-16T11:58:06.500Z,9.93
2022-09-16T12:03:14.039Z,10.29
2022-09-16T12:08:21.031Z,9.39
2022-09-16T12:13:28.939Z,9.39
2022-09-16T12:18:36.341Z,9.74
2022-09-16T12:23:43.462Z,9.74
2022-09-16T12:28:50.678Z,9.74
2022-09-16T12:33:58.052Z,10.09
2022-09-16T12:39:05.145Z,10.09
2022-09-16T12:44:30.440Z,10.09
2022-09-16T12:49:19.809Z,10.09
2022-09-16T12:54:26.962Z,10.99
2022-09-16T12:59:34.215Z,11.33
2022-09-16T13:04:42.655Z,10.99
2022-09-16T13:09:49.739Z,11.33
2022-09-16T13:14:56.940Z,11.33
2022-09-16T13:20:04.336Z,11.33
2022-09-16T13:25:11.401Z,11.33
2022-09-16T13:30:18.645Z,11.33
2022-09-16T13:35:26.098Z,10.42
2022-09-16T13:40:33.296Z,10.42
2022-09-16T13:45:40.482Z,10.42
2022-09-16T13:50:47.857Z,10.75
2022-09-16T13:55:54.985Z,10.75
2022-09-16T14:01:02.193Z,10.75
2022-09-16T14:06:09.614Z,10.75
2022-09-16T14:11:16.698Z,10.42
2022-09-16T14:16:24.015Z,10.42
2022-09-16T14:21:31.288Z,10.42
2022-09-16T14:26:38.428Z,10.42
2022-09-16T14:31:45.679Z,10.75
2022-09-16T14:36:53.063Z,10.42
2022-09-16T14:42:00.136Z,10.42
2022-09-16T14:47:10.019Z,10.42
2022-09-16T14:52:14.763Z,10.42
2022-09-16T14:57:21.857Z,10.42
2022-09-16T15:02:29.131Z,10.42
2022-09-16T15:07:46.052Z,10.42
2022-09-16T15:12:43.581Z,10.42
2022-09-16T15:17:53.289Z,10.42
2022-09-16T15:22:58.165Z,10.42
2022-09-16T15:28:05.319Z,10.75
2022-09-16T15:33:12.571Z,10.75
2022-09-16T15:38:19.902Z,10.75
2022-09-16T15:43:27.035Z,11.08
2022-09-16T15:48:34.301Z,10.75
2022-09-16T15:53:41.640Z,11.66
2022-09-16T15:58:48.701Z,11.66
2022-09-16T16:03:55.950Z,11.66
2022-09-16T16:09:03.258Z,11.66
2022-09-16T16:14:10.316Z,11.66
2022-09-16T16:19:17.547Z,11.66
2022-09-16T16:24:24.943Z,11.33
2022-09-16T16:29:32.021Z,11.33
2022-09-16T16:34:39.235Z,11.33
2022-09-16T16:39:46.628Z,11.33
2022-09-16T16:44:53.705Z,11.33
2022-09-16T16:50:00.905Z,11.90
2022-09-16T16:55:08.312Z,11.90
2022-09-16T17:00:15.421Z,11.90
2022-09-16T17:05:22.657Z,11.90
2022-09-16T17:10:29.984Z,11.90
2022-09-16T17:15:37.081Z,11.90
2022-09-16T17:20:44.317Z,11.90
2022-09-16T17:25:51.714Z,11.90
2022-09-16T17:30:58.921Z,11.90
2022-09-16T17:36:06.096Z,11.90
2022-09-16T17:41:13.454Z,11.90
2022-09-16T17:46:20.616Z,11.90
2022-09-16T17:51:27.792Z,11.90
2022-09-16T17:56:35.164Z,11.55
2022-09-16T18:01:42.242Z,11.55
2022-09-16T18:06:49.437Z,11.90
2022-09-16T18:11:56.791Z,11.90
2022-09-16T18:17:03.914Z,11.90
2022-09-16T18:22:11.051Z,11.90
2022-09-16T18:27:18.685Z,11.55
2022-09-16T18:32:25.910Z,11.55
2022-09-16T18:37:33.187Z,11.55
2022-09-16T18:42:40.900Z,11.55
2022-09-16T18:47:48.206Z,11.55
2022-09-16T18:52:55.467Z,11.55
2022-09-16T18:58:02.859Z,11.90
2022-09-16T19:03:09.940Z,11.90
2022-09-16T19:08:17.181Z,11.90
2022-09-16T19:13:24.558Z,11.90
2022-09-16T19:18:31.641Z,11.55
2022-09-16T19:23:38.853Z,11.55
2022-09-16T19:28:46.190Z,11.55
2022-09-16T19:33:53.250Z,11.55
2022-09-16T19:39:00.434Z,11.55
2022-09-16T19:44:07.738Z,11.19
2022-09-16T19:49:14.858Z,11.19
2022-09-16T19:54:22.055Z,11.19
2022-09-16T19:59:29.416Z,11.19
2022-09-16T20:04:36.544Z,11.19
2022-09-16T20:09:43.795Z,11.19
2022-09-16T20:14:51.109Z,11.19
2022-09-16T20:19:58.207Z,11.19
2022-09-16T20:25:22.062Z,11.19
2022-09-16T20:30:12.881Z,11.19
2022-09-16T20:35:19.981Z,10.83
2022-09-16T20:40:27.320Z,10.83
2022-09-16T20:45:34.601Z,10.83
2022-09-16T20:50:41.677Z,10.83
2022-09-16T20:55:48.950Z,10.83
2022-09-16T21:00:56.664Z,10.83
2022-09-16T21:06:03.654Z,10.83
2022-09-16T21:11:11.813Z,10.83
2022-09-16T21:16:19.192Z,11.19
2022-09-16T21:21:26.267Z,11.19
2022-09-16T21:26:33.504Z,11.19
2022-09-16T21:31:41.112Z,12.09
2022-09-16T21:36:47.910Z,11.73
2022-09-16T21:41:55.107Z,11.73
2022-09-16T21:47:02.405Z,11.73
2022-09-16T21:52:09.511Z,11.73
2022-09-16T21:57:17.105Z,10.97
2022-09-16T22:02:28.464Z,10.58
2022-09-16T22:07:31.447Z,10.97
2022-09-16T22:12:38.636Z,10.97
2022-09-16T22:17:48.881Z,11.35
2022-09-16T22:22:53.682Z,10.97
2022-09-16T22:28:00.816Z,10.97
2022-09-16T22:33:08.119Z,10.97
2022-09-16T22:38:15.198Z,10.97
2022-09-16T22:43:22.434Z,11.35
2022-09-16T22:48:29.818Z,10.97
2022-09-16T22:53:36.977Z,10.97
2022-09-16T22:58:44.239Z,10.97
2022-09-16T23:03:51.582Z,10.97
2022-09-16T23:08:58.746Z,10.97
2022-09-16T23:14:05.888Z,10.97
2022-09-16T23:19:13.225Z,10.97
2022-09-16T23:24:20.341Z,10.97
2022-09-16T23:29:27.558Z,10.97
2022-09-16T23:34:34.866Z,10.97
2022-09-16T23:39:41.985Z,10.97
2022-09-16T23:44:49.146Z,10.97
2022-09-16T23:49:56.443Z,10.97
2022-09-16T23:55:04.059Z,10.97
